< Typhoon 196302 1963 Season Typhoon 196304 >
Typhoon 196303 (ROSE)
General InformationTrack Information on Google Maps || Disaster Info.ResourceGoogle EarthGE AnimationAtom FeedGeoJSON
Detalied Best Track (Time Zone = UTC)
Year Month Day Hour Lat. Long. Pressure (hPa) Wind (kt) Class Image Chart
1963 6 6 12 19.7 115.2 1004 0 2 -- Chart
1963 6 6 18 19.5 116.1 1002 0 2 -- Chart
1963 6 7 00 19.0 117.1 1002 0 2 -- Chart
1963 6 7 06 18.6 118.1 1002 0 2 -- Chart
1963 6 7 12 18.4 118.8 1002 0 2 -- Chart
1963 6 7 18 18.3 119.4 1000 0 2 -- Chart
1963 6 8 00 18.3 119.6 998 0 2 -- Chart
1963 6 8 06 18.4 120.1 998 0 2 -- Chart
1963 6 8 12 18.6 120.4 998 0 9 -- Chart
1963 6 8 18 18.8 120.6 998 0 9 -- Chart
1963 6 9 00 19.1 120.9 998 0 9 -- Chart
1963 6 9 06 19.6 121.4 998 0 9 -- Chart
1963 6 9 12 19.9 121.8 998 0 9 -- Chart
1963 6 9 18 20.3 122.1 998 0 9 -- Chart
1963 6 10 00 20.9 122.6 998 0 9 -- Chart
1963 6 10 06 21.5 123.5 998 0 9 -- Chart
1963 6 10 12 21.9 124.1 995 0 9 -- Chart
1963 6 10 18 22.4 124.6 995 0 9 -- Chart
1963 6 11 00 23.0 125.2 995 0 9 -- Chart
1963 6 11 06 23.4 125.7 995 0 9 -- Chart
1963 6 11 12 23.7 126.3 995 0 9 -- Chart
1963 6 11 18 24.1 126.8 995 0 9 -- Chart
1963 6 12 00 24.5 127.4 995 0 9 -- Chart
1963 6 12 06 24.9 128.0 995 0 9 -- Chart
1963 6 12 12 25.3 128.4 995 0 9 -- Chart
1963 6 12 18 26.3 128.6 995 0 9 -- Chart
1963 6 13 00 27.9 129.9 995 0 9 -- Chart
1963 6 13 06 29.6 131.1 995 0 9 -- Chart
1963 6 13 12 32.5 132.3 994 0 9 -- Chart
1963 6 13 18 35.4 134.2 992 0 9 -- Chart
1963 6 14 00 37.9 136.8 994 0 9 -- Chart
1963 6 14 06 40.6 141.0 996 0 6 -- Chart
1963 6 14 12 41.5 144.4 998 0 6 -- Chart
1963 6 14 18 42.7 148.6 1000 0 6 -- Chart
1963 6 15 00 44.8 152.7 1000 0 6 -- Chart
1963 6 15 06 47.5 156.0 996 0 6 -- Chart
1963 6 15 12 49.2 159.5 994 0 6 -- Chart
1963 6 15 18 50.0 162.5 990 0 6 -- Chart
1963 6 16 00 50.5 165.0 990 0 6 -- Chart
1963 6 16 06 50.7 167.4 984 0 6 -- Chart
1963 6 16 12 50.8 169.6 984 0 6 -- Chart
1963 6 16 18 51.0 171.8 982 0 6 -- Chart
1963 6 17 00 51.0 174.0 980 0 6 -- Chart
1963 6 17 06 51.0 178.0 980 0 6 -- Chart
1963 6 17 12 51.4 179.0 982 0 6 -- Chart
1963 6 17 18 52.0 180.0 986 0 6 -- Chart
1963 6 18 00 53.0 182.0 990 0 6 -- Chart
Japan Meteorological Agency Best Track Data | Correction Date : 1991-07-16
< Typhoon 196302 1963 Season Typhoon 196304 >

Help